sensor_id;sensor_type;location;lat;lon;timestamp;pressure;altitude;pressure_sealevel;temperature;humidity
69198;BME280;56311;50.298;8.514;2022-07-21T00:00:25;97912.69;;;19.81;100.00
69198;BME280;56311;50.298;8.514;2022-07-21T00:02:53;97915.69;;;19.88;100.00
69198;BME280;56311;50.298;8.514;2022-07-21T00:05:22;97900.13;;;19.80;100.00
69198;BME280;56311;50.298;8.514;2022-07-21T00:07:51;97897.94;;;19.73;100.00
69198;BME280;56311;50.298;8.514;2022-07-21T00:10:19;97909.25;;;19.71;100.00
69198;BME280;56311;50.298;8.514;2022-07-21T00:12:46;97900.13;;;19.55;100.00
69198;BME280;56311;50.298;8.514;2022-07-21T00:15:15;97897.06;;;19.56;100.00
69198;BME280;56311;50.298;8.514;2022-07-21T00:17:42;97902.19;;;19.58;100.00
69198;BME280;56311;50.298;8.514;2022-07-21T00:20:11;97903.91;;;19.63;100.00
69198;BME280;56311;50.298;8.514;2022-07-21T00:22:40;97927.13;;;19.53;100.00
69198;BME280;56311;50.298;8.514;2022-07-21T00:25:08;97922.41;;;19.53;100.00
69198;BME280;56311;50.298;8.514;2022-07-21T00:27:35;97915.09;;;19.57;100.00
69198;BME280;56311;50.298;8.514;2022-07-21T00:30:03;97932.84;;;19.60;100.00
69198;BME280;56311;50.298;8.514;2022-07-21T00:32:30;97936.94;;;19.54;100.00
69198;BME280;56311;50.298;8.514;2022-07-21T00:35:02;97935.91;;;19.59;100.00
69198;BME280;56311;50.298;8.514;2022-07-21T00:37:29;97937.88;;;19.58;100.00
69198;BME280;56311;50.298;8.514;2022-07-21T00:39:57;97952.03;;;19.60;100.00
69198;BME280;56311;50.298;8.514;2022-07-21T00:42:26;97943.81;;;19.60;100.00
69198;BME280;56311;50.298;8.514;2022-07-21T00:44:54;97954.19;;;19.67;100.00
69198;BME280;56311;50.298;8.514;2022-07-21T00:47:22;97954.91;;;19.64;100.00
69198;BME280;56311;50.298;8.514;2022-07-21T00:49:50;97935.00;;;19.67;100.00
69198;BME280;56311;50.298;8.514;2022-07-21T00:52:17;97946.22;;;19.62;100.00
69198;BME280;56311;50.298;8.514;2022-07-21T00:54:45;97955.94;;;19.59;100.00
69198;BME280;56311;50.298;8.514;2022-07-21T00:57:14;97942.88;;;19.56;100.00
69198;BME280;56311;50.298;8.514;2022-07-21T00:59:41;97941.50;;;19.62;100.00
69198;BME280;56311;50.298;8.514;2022-07-21T01:02:09;97946.44;;;19.69;100.00
69198;BME280;56311;50.298;8.514;2022-07-21T01:04:36;97943.13;;;19.63;100.00
69198;BME280;56311;50.298;8.514;2022-07-21T01:07:05;97956.16;;;19.66;100.00
69198;BME280;56311;50.298;8.514;2022-07-21T01:09:32;97959.47;;;19.72;100.00
69198;BME280;56311;50.298;8.514;2022-07-21T01:12:00;97959.34;;;19.56;100.00
69198;BME280;56311;50.298;8.514;2022-07-21T01:14:29;62402.38;;;-147.88;100.00
69198;BME280;56311;50.298;8.514;2022-07-21T01:16:56;62402.38;;;-147.88;100.00
69198;BME280;56311;50.298;8.514;2022-07-21T01:19:23;62402.38;;;-147.88;100.00
69198;BME280;56311;50.298;8.514;2022-07-21T01:21:52;97959.78;;;19.33;100.00
69198;BME280;56311;50.298;8.514;2022-07-21T01:24:19;97944.03;;;19.30;100.00
69198;BME280;56311;50.298;8.514;2022-07-21T01:26:48;62402.38;;;-147.88;100.00
69198;BME280;56311;50.298;8.514;2022-07-21T01:29:16;97948.50;;;19.35;100.00
69198;BME280;56311;50.298;8.514;2022-07-21T01:31:46;97954.16;;;19.30;100.00
69198;BME280;56311;50.298;8.514;2022-07-21T01:34:13;97960.69;;;19.25;100.00
69198;BME280;56311;50.298;8.514;2022-07-21T01:36:40;97960.13;;;19.19;100.00
69198;BME280;56311;50.298;8.514;2022-07-21T01:39:08;97962.59;;;19.12;100.00
69198;BME280;56311;50.298;8.514;2022-07-21T01:41:54;97974.25;;;19.09;100.00
69198;BME280;56311;50.298;8.514;2022-07-21T01:44:22;97970.00;;;19.12;100.00
69198;BME280;56311;50.298;8.514;2022-07-21T01:46:50;97976.31;;;18.91;100.00
69198;BME280;56311;50.298;8.514;2022-07-21T01:49:19;97975.53;;;18.90;100.00
69198;BME280;56311;50.298;8.514;2022-07-21T01:51:46;97989.13;;;18.87;100.00
69198;BME280;56311;50.298;8.514;2022-07-21T01:54:14;62402.38;;;-147.88;100.00
69198;BME280;56311;50.298;8.514;2022-07-21T01:56:49;97980.78;;;18.62;100.00
69198;BME280;56311;50.298;8.514;2022-07-21T01:59:16;97986.47;;;18.57;100.00
69198;BME280;56311;50.298;8.514;2022-07-21T02:01:43;97993.63;;;18.49;100.00
69198;BME280;56311;50.298;8.514;2022-07-21T02:04:10;98001.44;;;18.38;100.00
69198;BME280;56311;50.298;8.514;2022-07-21T02:06:37;62402.38;;;-147.88;100.00
69198;BME280;56311;50.298;8.514;2022-07-21T02:09:04;62402.38;;;-147.88;100.00
69198;BME280;56311;50.298;8.514;2022-07-21T02:11:35;97997.75;;;18.13;100.00
69198;BME280;56311;50.298;8.514;2022-07-21T02:14:02;97997.78;;;18.04;100.00
69198;BME280;56311;50.298;8.514;2022-07-21T02:16:29;98005.19;;;18.04;100.00
69198;BME280;56311;50.298;8.514;2022-07-21T02:18:57;97996.19;;;17.94;100.00
69198;BME280;56311;50.298;8.514;2022-07-21T02:21:24;97994.94;;;17.92;100.00
69198;BME280;56311;50.298;8.514;2022-07-21T02:23:51;97995.25;;;17.90;100.00
69198;BME280;56311;50.298;8.514;2022-07-21T02:26:19;97990.00;;;17.76;100.00
69198;BME280;56311;50.298;8.514;2022-07-21T02:28:48;97991.81;;;17.72;100.00
69198;BME280;56311;50.298;8.514;2022-07-21T02:31:16;98007.13;;;17.64;100.00
69198;BME280;56311;50.298;8.514;2022-07-21T02:33:42;98005.69;;;17.58;100.00
69198;BME280;56311;50.298;8.514;2022-07-21T02:36:10;98001.19;;;17.62;100.00
69198;BME280;56311;50.298;8.514;2022-07-21T02:38:37;97999.72;;;17.65;100.00
69198;BME280;56311;50.298;8.514;2022-07-21T02:41:04;98017.47;;;17.59;100.00
69198;BME280;56311;50.298;8.514;2022-07-21T02:43:31;98014.06;;;17.62;100.00
69198;BME280;56311;50.298;8.514;2022-07-21T02:45:59;98017.59;;;17.62;100.00
69198;BME280;56311;50.298;8.514;2022-07-21T02:48:27;98010.03;;;17.59;100.00
69198;BME280;56311;50.298;8.514;2022-07-21T02:50:54;98004.81;;;17.45;100.00
69198;BME280;56311;50.298;8.514;2022-07-21T02:53:21;98009.00;;;17.43;100.00
69198;BME280;56311;50.298;8.514;2022-07-21T02:55:51;98015.28;;;17.34;100.00
69198;BME280;56311;50.298;8.514;2022-07-21T02:58:20;98015.59;;;17.33;100.00
69198;BME280;56311;50.298;8.514;2022-07-21T03:00:49;98011.72;;;17.34;100.00
69198;BME280;56311;50.298;8.514;2022-07-21T03:03:19;98010.94;;;17.33;100.00
69198;BME280;56311;50.298;8.514;2022-07-21T03:05:46;98004.19;;;17.31;100.00
69198;BME280;56311;50.298;8.514;2022-07-21T03:08:14;98006.91;;;17.40;100.00
69198;BME280;56311;50.298;8.514;2022-07-21T03:10:41;98011.72;;;17.34;100.00
69198;BME280;56311;50.298;8.514;2022-07-21T03:13:09;98013.84;;;17.28;100.00
69198;BME280;56311;50.298;8.514;2022-07-21T03:15:36;98009.66;;;17.31;100.00
69198;BME280;56311;50.298;8.514;2022-07-21T03:18:04;98014.31;;;17.30;100.00
69198;BME280;56311;50.298;8.514;2022-07-21T03:20:34;98015.75;;;17.37;100.00
69198;BME280;56311;50.298;8.514;2022-07-21T03:23:01;98014.63;;;17.38;100.00
69198;BME280;56311;50.298;8.514;2022-07-21T03:25:29;98024.75;;;17.37;100.00
69198;BME280;56311;50.298;8.514;2022-07-21T03:27:56;98014.94;;;17.36;100.00
69198;BME280;56311;50.298;8.514;2022-07-21T03:30:23;98018.31;;;17.42;100.00
69198;BME280;56311;50.298;8.514;2022-07-21T03:32:51;98016.91;;;17.36;100.00
69198;BME280;56311;50.298;8.514;2022-07-21T03:35:18;98018.81;;;17.35;100.00
69198;BME280;56311;50.298;8.514;2022-07-21T03:37:49;98000.31;;;17.41;100.00
69198;BME280;56311;50.298;8.514;2022-07-21T03:40:19;98007.38;;;17.33;100.00
69198;BME280;56311;50.298;8.514;2022-07-21T03:42:50;98018.16;;;17.29;100.00
69198;BME280;56311;50.298;8.514;2022-07-21T03:45:17;98024.66;;;17.25;100.00
69198;BME280;56311;50.298;8.514;2022-07-21T03:47:44;98027.38;;;17.25;100.00
69198;BME280;56311;50.298;8.514;2022-07-21T03:50:12;98024.66;;;17.25;100.00
69198;BME280;56311;50.298;8.514;2022-07-21T03:52:40;98020.00;;;17.16;100.00
69198;BME280;56311;50.298;8.514;2022-07-21T03:55:09;98030.09;;;17.25;100.00
69198;BME280;56311;50.298;8.514;2022-07-21T03:57:42;98032.34;;;17.23;100.00
69198;BME280;56311;50.298;8.514;2022-07-21T04:00:13;98036.84;;;17.27;100.00
69198;BME280;56311;50.298;8.514;2022-07-21T04:02:42;98037.16;;;17.26;100.00
69198;BME280;56311;50.298;8.514;2022-07-21T04:05:15;98027.69;;;17.23;100.00
69198;BME280;56311;50.298;8.514;2022-07-21T04:07:44;98032.34;;;17.23;100.00
69198;BME280;56311;50.298;8.514;2022-07-21T04:10:15;98036.22;;;17.22;100.00
69198;BME280;56311;50.298;8.514;2022-07-21T04:12:43;98032.50;;;17.26;100.00
69198;BME280;56311;50.298;8.514;2022-07-21T04:15:13;98032.84;;;17.25;100.00
69198;BME280;56311;50.298;8.514;2022-07-21T04:17:40;98031.22;;;17.24;100.00
69198;BME280;56311;50.298;8.514;2022-07-21T04:20:09;98031.88;;;17.21;100.00
69198;BME280;56311;50.298;8.514;2022-07-21T04:22:36;98031.22;;;17.15;100.00
69198;BME280;56311;50.298;8.514;2022-07-21T04:25:04;98030.28;;;17.11;100.00
69198;BME280;56311;50.298;8.514;2022-07-21T04:27:34;98047.97;;;17.05;100.00
69198;BME280;56311;50.298;8.514;2022-07-21T04:30:03;98038.97;;;17.04;100.00
69198;BME280;56311;50.298;8.514;2022-07-21T04:32:30;98045.75;;;17.07;100.00
69198;BME280;56311;50.298;8.514;2022-07-21T04:34:58;98057.47;;;17.07;100.00
69198;BME280;56311;50.298;8.514;2022-07-21T04:37:25;98057.47;;;17.07;100.00
69198;BME280;56311;50.298;8.514;2022-07-21T04:39:51;98054.25;;;17.05;100.00
69198;BME280;56311;50.298;8.514;2022-07-21T04:42:19;98058.59;;;17.06;100.00
69198;BME280;56311;50.298;8.514;2022-07-21T04:44:48;98055.06;;;17.06;100.00
69198;BME280;56311;50.298;8.514;2022-07-21T04:47:15;98059.22;;;17.12;100.00
69198;BME280;56311;50.298;8.514;2022-07-21T04:49:42;98060.53;;;17.06;100.00
69198;BME280;56311;50.298;8.514;2022-07-21T04:52:09;98058.91;;;17.05;100.00
69198;BME280;56311;50.298;8.514;2022-07-21T04:54:38;98074.81;;;17.02;100.00
69198;BME280;56311;50.298;8.514;2022-07-21T04:57:06;98064.69;;;17.12;100.00
69198;BME280;56311;50.298;8.514;2022-07-21T04:59:34;98074.50;;;17.13;100.00
69198;BME280;56311;50.298;8.514;2022-07-21T05:02:03;98069.81;;;17.22;100.00
69198;BME280;56311;50.298;8.514;2022-07-21T05:04:31;98073.19;;;17.28;100.00
69198;BME280;56311;50.298;8.514;2022-07-21T05:06:58;98074.00;;;17.28;100.00
69198;BME280;56311;50.298;8.514;2022-07-21T05:09:25;98076.25;;;17.35;100.00
69198;BME280;56311;50.298;8.514;2022-07-21T05:11:52;98081.22;;;17.33;100.00
69198;BME280;56311;50.298;8.514;2022-07-21T05:14:19;98085.41;;;17.39;100.00
69198;BME280;56311;50.298;8.514;2022-07-21T05:16:47;98086.81;;;17.54;100.00
69198;BME280;56311;50.298;8.514;2022-07-21T05:19:15;98080.16;;;17.73;100.00
69198;BME280;56311;50.298;8.514;2022-07-21T05:21:42;98078.97;;;17.91;100.00
69198;BME280;56311;50.298;8.514;2022-07-21T05:24:09;98078.47;;;18.07;100.00
69198;BME280;56311;50.298;8.514;2022-07-21T05:26:40;98076.47;;;18.16;100.00
69198;BME280;56311;50.298;8.514;2022-07-21T05:29:07;98080.31;;;18.24;99.04
69198;BME280;56311;50.298;8.514;2022-07-21T05:31:34;98075.28;;;18.26;98.30
69198;BME280;56311;50.298;8.514;2022-07-21T05:34:01;98082.22;;;18.23;98.47
69198;BME280;56311;50.298;8.514;2022-07-21T05:36:29;98073.38;;;18.26;97.52
69198;BME280;56311;50.298;8.514;2022-07-21T05:38:56;98069.66;;;18.22;97.78
69198;BME280;56311;50.298;8.514;2022-07-21T05:41:24;98072.84;;;18.03;97.85
69198;BME280;56311;50.298;8.514;2022-07-21T05:43:51;98080.91;;;18.00;100.00
69198;BME280;56311;50.298;8.514;2022-07-21T05:46:18;98065.78;;;17.85;99.97
69198;BME280;56311;50.298;8.514;2022-07-21T05:48:45;98066.31;;;17.69;99.37
69198;BME280;56311;50.298;8.514;2022-07-21T05:51:12;98073.94;;;17.55;100.00
69198;BME280;56311;50.298;8.514;2022-07-21T05:53:46;98080.38;;;17.59;100.00
69198;BME280;56311;50.298;8.514;2022-07-21T05:56:13;98078.44;;;17.59;100.00
69198;BME280;56311;50.298;8.514;2022-07-21T05:58:40;98076.97;;;17.71;100.00
69198;BME280;56311;50.298;8.514;2022-07-21T06:01:07;98083.19;;;17.80;99.59
69198;BME280;56311;50.298;8.514;2022-07-21T06:03:42;98085.22;;;18.01;99.96
69198;BME280;56311;50.298;8.514;2022-07-21T06:06:10;98094.84;;;18.16;96.66
69198;BME280;56311;50.298;8.514;2022-07-21T06:08:41;98098.63;;;18.32;97.13
69198;BME280;56311;50.298;8.514;2022-07-21T06:11:11;98111.50;;;18.61;93.94
69198;BME280;56311;50.298;8.514;2022-07-21T06:13:42;98114.09;;;18.79;92.83
69198;BME280;56311;50.298;8.514;2022-07-21T06:16:10;98105.00;;;18.96;91.89
69198;BME280;56311;50.298;8.514;2022-07-21T06:21:19;98125.03;;;19.30;88.71
69198;BME280;56311;50.298;8.514;2022-07-21T06:23:46;98117.59;;;19.31;89.21
69198;BME280;56311;50.298;8.514;2022-07-21T06:26:15;98117.34;;;19.23;88.57
69198;BME280;56311;50.298;8.514;2022-07-21T06:28:42;98112.03;;;19.06;89.38
69198;BME280;56311;50.298;8.514;2022-07-21T06:31:09;98105.09;;;18.78;89.38
69198;BME280;56311;50.298;8.514;2022-07-21T06:33:39;98111.72;;;18.77;91.45
69198;BME280;56311;50.298;8.514;2022-07-21T06:36:07;98113.91;;;18.63;91.27
69198;BME280;56311;50.298;8.514;2022-07-21T06:38:35;98118.13;;;18.60;91.47
69198;BME280;56311;50.298;8.514;2022-07-21T06:41:02;98117.75;;;18.41;93.26
69198;BME280;56311;50.298;8.514;2022-07-21T06:43:31;98117.91;;;18.44;93.05
69198;BME280;56311;50.298;8.514;2022-07-21T06:45:58;98131.88;;;18.52;93.48
69198;BME280;56311;50.298;8.514;2022-07-21T06:48:25;98132.72;;;18.73;92.51
69198;BME280;56311;50.298;8.514;2022-07-21T06:50:53;98133.53;;;19.37;90.27
69198;BME280;56311;50.298;8.514;2022-07-21T06:53:22;98137.84;;;19.60;87.07
69198;BME280;56311;50.298;8.514;2022-07-21T06:55:49;98131.47;;;19.68;84.75
69198;BME280;56311;50.298;8.514;2022-07-21T06:58:28;98131.47;;;19.80;85.32
69198;BME280;56311;50.298;8.514;2022-07-21T07:01:01;98128.59;;;19.64;84.61
69198;BME280;56311;50.298;8.514;2022-07-21T07:03:29;98133.75;;;19.32;86.35
69198;BME280;56311;50.298;8.514;2022-07-21T07:05:59;98133.75;;;19.32;86.35
69198;BME280;56311;50.298;8.514;2022-07-21T07:08:26;98135.41;;;19.46;86.08
69198;BME280;56311;50.298;8.514;2022-07-21T07:10:53;98142.47;;;19.47;85.22
69198;BME280;56311;50.298;8.514;2022-07-21T07:13:20;98141.34;;;19.48;86.01
69198;BME280;56311;50.298;8.514;2022-07-21T07:16:08;98140.53;;;19.47;86.92
69198;BME280;56311;50.298;8.514;2022-07-21T07:18:36;98140.53;;;19.81;85.60
69198;BME280;56311;50.298;8.514;2022-07-21T07:21:05;98142.66;;;20.09;84.50
69198;BME280;56311;50.298;8.514;2022-07-21T07:23:37;98153.31;;;20.60;83.10
69198;BME280;56311;50.298;8.514;2022-07-21T07:26:04;98147.16;;;20.75;81.85
69198;BME280;56311;50.298;8.514;2022-07-21T07:28:31;98148.16;;;20.71;80.71
69198;BME280;56311;50.298;8.514;2022-07-21T07:30:58;98146.81;;;20.77;80.54
69198;BME280;56311;50.298;8.514;2022-07-21T07:33:27;98146.69;;;20.73;80.11
69198;BME280;56311;50.298;8.514;2022-07-21T07:35:54;98163.16;;;20.24;81.14
69198;BME280;56311;50.298;8.514;2022-07-21T07:38:23;98157.19;;;19.76;83.21
69198;BME280;56311;50.298;8.514;2022-07-21T07:40:51;98159.38;;;19.70;84.00
69198;BME280;56311;50.298;8.514;2022-07-21T07:43:18;98158.50;;;20.36;82.25
69198;BME280;56311;50.298;8.514;2022-07-21T07:45:46;98149.31;;;20.70;79.82
69198;BME280;56311;50.298;8.514;2022-07-21T07:48:13;98147.66;;;21.06;76.78
69198;BME280;56311;50.298;8.514;2022-07-21T07:50:42;98147.81;;;20.97;74.75
69198;BME280;56311;50.298;8.514;2022-07-21T07:53:09;98148.13;;;21.08;74.34
69198;BME280;56311;50.298;8.514;2022-07-21T07:55:36;98158.25;;;21.04;73.47
69198;BME280;56311;50.298;8.514;2022-07-21T08:00:31;98146.38;;;20.75;75.79
69198;BME280;56311;50.298;8.514;2022-07-21T08:03:18;98147.47;;;20.61;76.59
69198;BME280;56311;50.298;8.514;2022-07-21T08:05:47;98147.72;;;20.56;77.72
69198;BME280;56311;50.298;8.514;2022-07-21T08:08:16;98159.66;;;20.60;78.14
69198;BME280;56311;50.298;8.514;2022-07-21T08:10:44;98149.69;;;20.56;78.09
69198;BME280;56311;50.298;8.514;2022-07-21T08:13:15;98141.88;;;20.33;77.69
69198;BME280;56311;50.298;8.514;2022-07-21T08:15:43;98145.22;;;20.51;77.33
69198;BME280;56311;50.298;8.514;2022-07-21T08:18:11;98134.19;;;20.63;77.38
69198;BME280;56311;50.298;8.514;2022-07-21T08:20:38;98136.03;;;20.47;77.56
69198;BME280;56311;50.298;8.514;2022-07-21T08:23:07;98146.56;;;20.20;77.52
69198;BME280;56311;50.298;8.514;2022-07-21T08:25:36;98149.91;;;20.26;78.57
69198;BME280;56311;50.298;8.514;2022-07-21T08:28:04;98144.03;;;20.02;78.61
69198;BME280;56311;50.298;8.514;2022-07-21T08:30:32;98149.28;;;19.95;79.33
69198;BME280;56311;50.298;8.514;2022-07-21T08:32:59;98141.97;;;19.99;80.22
69198;BME280;56311;50.298;8.514;2022-07-21T08:35:27;98146.13;;;20.30;78.89
69198;BME280;56311;50.298;8.514;2022-07-21T08:37:56;98143.16;;;20.73;77.66
69198;BME280;56311;50.298;8.514;2022-07-21T08:40:32;98144.03;;;21.02;74.86
69198;BME280;56311;50.298;8.514;2022-07-21T08:43:00;98142.44;;;20.76;73.46
69198;BME280;56311;50.298;8.514;2022-07-21T08:45:28;98147.59;;;20.90;72.86
69198;BME280;56311;50.298;8.514;2022-07-21T08:47:58;98140.56;;;21.05;71.46
69198;BME280;56311;50.298;8.514;2022-07-21T08:50:31;98147.09;;;21.12;73.01
69198;BME280;56311;50.298;8.514;2022-07-21T08:52:58;98149.53;;;21.02;71.44
69198;BME280;56311;50.298;8.514;2022-07-21T08:55:30;98155.28;;;20.84;72.54
69198;BME280;56311;50.298;8.514;2022-07-21T08:57:58;98161.47;;;20.93;73.33
69198;BME280;56311;50.298;8.514;2022-07-21T09:00:25;98165.66;;;21.44;70.69
69198;BME280;56311;50.298;8.514;2022-07-21T09:03:08;98162.63;;;21.90;68.14
69198;BME280;56311;50.298;8.514;2022-07-21T09:05:36;98154.56;;;22.45;66.45
69198;BME280;56311;50.298;8.514;2022-07-21T09:08:04;98146.06;;;22.70;65.59
69198;BME280;56311;50.298;8.514;2022-07-21T09:10:34;98145.72;;;21.91;67.24
69198;BME280;56311;50.298;8.514;2022-07-21T09:13:04;98139.47;;;21.62;68.66
69198;BME280;56311;50.298;8.514;2022-07-21T09:15:34;98140.81;;;21.40;68.90
69198;BME280;56311;50.298;8.514;2022-07-21T09:18:07;98142.72;;;21.11;70.81
69198;BME280;56311;50.298;8.514;2022-07-21T09:20:46;98138.16;;;21.03;71.16
69198;BME280;56311;50.298;8.514;2022-07-21T09:23:15;98144.38;;;20.88;71.18
69198;BME280;56311;50.298;8.514;2022-07-21T09:25:46;98141.31;;;20.89;70.89
69198;BME280;56311;50.298;8.514;2022-07-21T09:28:16;98145.09;;;20.85;70.71
69198;BME280;56311;50.298;8.514;2022-07-21T09:30:56;98142.59;;;21.20;70.19
69198;BME280;56311;50.298;8.514;2022-07-21T09:33:28;98139.63;;;21.13;71.18
69198;BME280;56311;50.298;8.514;2022-07-21T09:36:02;98138.78;;;20.96;70.33
69198;BME280;56311;50.298;8.514;2022-07-21T09:38:31;98145.53;;;20.99;71.24
69198;BME280;56311;50.298;8.514;2022-07-21T09:41:09;98142.66;;;20.95;72.37
69198;BME280;56311;50.298;8.514;2022-07-21T09:43:40;98144.72;;;20.98;70.68
69198;BME280;56311;50.298;8.514;2022-07-21T09:46:16;98156.19;;;20.88;68.11
69198;BME280;56311;50.298;8.514;2022-07-21T09:48:45;98145.28;;;21.04;67.81
69198;BME280;56311;50.298;8.514;2022-07-21T09:51:34;98159.13;;;21.49;68.79
69198;BME280;56311;50.298;8.514;2022-07-21T09:54:05;98150.66;;;21.70;66.89
69198;BME280;56311;50.298;8.514;2022-07-21T09:56:36;98145.72;;;21.91;65.71
69198;BME280;56311;50.298;8.514;2022-07-21T09:59:05;98147.69;;;21.91;67.26
69198;BME280;56311;50.298;8.514;2022-07-21T10:01:34;98137.56;;;22.75;66.87
69198;BME280;56311;50.298;8.514;2022-07-21T10:04:04;98143.97;;;22.15;67.82
69198;BME280;56311;50.298;8.514;2022-07-21T10:06:34;98145.78;;;21.63;70.18
69198;BME280;56311;50.298;8.514;2022-07-21T10:09:05;98155.56;;;21.20;71.68
69198;BME280;56311;50.298;8.514;2022-07-21T10:11:39;98159.06;;;20.79;76.32
69198;BME280;56311;50.298;8.514;2022-07-21T10:14:09;98155.41;;;20.63;83.98
69198;BME280;56311;50.298;8.514;2022-07-21T10:16:37;98166.63;;;20.45;89.41
69198;BME280;56311;50.298;8.514;2022-07-21T10:19:10;98160.53;;;20.27;91.66
69198;BME280;56311;50.298;8.514;2022-07-21T10:21:43;98165.41;;;19.84;93.20
69198;BME280;56311;50.298;8.514;2022-07-21T10:24:13;98160.59;;;19.60;93.00
69198;BME280;56311;50.298;8.514;2022-07-21T10:27:04;98155.28;;;19.76;93.39
69198;BME280;56311;50.298;8.514;2022-07-21T10:29:54;98162.66;;;19.97;97.20
69198;BME280;56311;50.298;8.514;2022-07-21T10:32:31;98160.22;;;20.41;100.00
69198;BME280;56311;50.298;8.514;2022-07-21T10:35:00;98148.50;;;21.35;100.00
69198;BME280;56311;50.298;8.514;2022-07-21T10:37:44;98139.19;;;22.28;92.72
69198;BME280;56311;50.298;8.514;2022-07-21T10:40:35;98135.38;;;22.84;82.59
69198;BME280;56311;50.298;8.514;2022-07-21T10:43:41;98140.06;;;22.48;81.07
69198;BME280;56311;50.298;8.514;2022-07-21T10:46:32;98140.06;;;22.48;81.07
69198;BME280;56311;50.298;8.514;2022-07-21T10:49:00;98136.19;;;21.44;94.77
69198;BME280;56311;50.298;8.514;2022-07-21T10:51:28;98141.44;;;21.21;90.53
69198;BME280;56311;50.298;8.514;2022-07-21T10:54:23;98138.97;;;21.04;90.54
69198;BME280;56311;50.298;8.514;2022-07-21T10:57:25;98142.22;;;20.93;85.08
69198;BME280;56311;50.298;8.514;2022-07-21T11:00:20;98138.63;;;21.05;89.02
69198;BME280;56311;50.298;8.514;2022-07-21T11:02:51;98140.19;;;21.19;87.83
69198;BME280;56311;50.298;8.514;2022-07-21T11:05:20;98132.38;;;21.49;85.13
69198;BME280;56311;50.298;8.514;2022-07-21T11:08:10;98121.41;;;22.77;82.88
69198;BME280;56311;50.298;8.514;2022-07-21T11:10:39;98129.41;;;23.37;75.63
69198;BME280;56311;50.298;8.514;2022-07-21T11:13:07;98118.91;;;23.66;70.69
69198;BME280;56311;50.298;8.514;2022-07-21T11:15:56;62402.38;;;-147.88;100.00
69198;BME280;56311;50.298;8.514;2022-07-21T11:18:25;62402.38;;;-147.88;100.00
69198;BME280;56311;50.298;8.514;2022-07-21T11:21:06;62402.38;;;-147.88;100.00
69198;BME280;56311;50.298;8.514;2022-07-21T11:23:42;62402.38;;;-147.88;100.00
69198;BME280;56311;50.298;8.514;2022-07-21T11:26:10;98112.69;;;23.30;64.67
69198;BME280;56311;50.298;8.514;2022-07-21T11:28:38;98117.25;;;22.67;65.74
69198;BME280;56311;50.298;8.514;2022-07-21T11:31:15;98122.72;;;22.32;68.81
69198;BME280;56311;50.298;8.514;2022-07-21T11:33:45;98118.38;;;22.31;69.13
69198;BME280;56311;50.298;8.514;2022-07-21T11:36:24;98106.09;;;23.35;67.45
69198;BME280;56311;50.298;8.514;2022-07-21T11:39:04;98104.19;;;23.59;64.89
69198;BME280;56311;50.298;8.514;2022-07-21T11:41:32;62402.38;;;-147.88;100.00
69198;BME280;56311;50.298;8.514;2022-07-21T11:44:00;62402.38;;;-147.88;100.00
69198;BME280;56311;50.298;8.514;2022-07-21T11:46:44;98111.13;;;22.74;66.93
69198;BME280;56311;50.298;8.514;2022-07-21T11:49:12;98107.16;;;22.55;66.46
69198;BME280;56311;50.298;8.514;2022-07-21T11:51:46;98103.59;;;22.55;66.45
69198;BME280;56311;50.298;8.514;2022-07-21T11:54:22;98107.22;;;22.95;66.95
69198;BME280;56311;50.298;8.514;2022-07-21T11:56:50;98106.31;;;23.26;66.42
69198;BME280;56311;50.298;8.514;2022-07-21T11:59:17;98106.47;;;23.76;62.98
69198;BME280;56311;50.298;8.514;2022-07-21T12:01:51;98110.22;;;23.64;59.23
69198;BME280;56311;50.298;8.514;2022-07-21T12:04:46;98108.84;;;25.01;59.19
69198;BME280;56311;50.298;8.514;2022-07-21T12:07:18;98101.50;;;24.86;57.68
69198;BME280;56311;50.298;8.514;2022-07-21T12:09:49;98113.81;;;25.53;54.60
69198;BME280;56311;50.298;8.514;2022-07-21T12:12:32;98103.31;;;26.11;52.96
69198;BME280;56311;50.298;8.514;2022-07-21T12:15:10;98099.22;;;26.01;49.33
69198;BME280;56311;50.298;8.514;2022-07-21T12:17:41;98088.97;;;26.05;46.94
69198;BME280;56311;50.298;8.514;2022-07-21T12:20:09;98092.56;;;26.61;47.55
69198;BME280;56311;50.298;8.514;2022-07-21T12:22:39;98096.09;;;27.28;47.37
69198;BME280;56311;50.298;8.514;2022-07-21T12:25:08;98088.34;;;26.78;45.17
69198;BME280;56311;50.298;8.514;2022-07-21T12:27:37;98091.13;;;26.26;43.77
69198;BME280;56311;50.298;8.514;2022-07-21T12:30:06;98085.63;;;25.85;43.52
69198;BME280;56311;50.298;8.514;2022-07-21T12:32:46;98091.41;;;25.31;46.88
69198;BME280;56311;50.298;8.514;2022-07-21T12:35:19;98093.13;;;25.81;46.36
69198;BME280;56311;50.298;8.514;2022-07-21T12:38:03;98083.31;;;25.19;46.25
69198;BME280;56311;50.298;8.514;2022-07-21T12:40:32;98082.34;;;24.70;46.82
69198;BME280;56311;50.298;8.514;2022-07-21T12:43:07;98094.31;;;25.11;46.76
69198;BME280;56311;50.298;8.514;2022-07-21T12:45:50;98085.66;;;26.33;43.56
69198;BME280;56311;50.298;8.514;2022-07-21T12:48:20;98075.28;;;26.82;42.64
69198;BME280;56311;50.298;8.514;2022-07-21T12:51:06;98080.53;;;25.90;44.05
69198;BME280;56311;50.298;8.514;2022-07-21T12:53:36;98077.50;;;26.06;43.71
69198;BME280;56311;50.298;8.514;2022-07-21T12:56:04;98080.28;;;25.62;45.70
69198;BME280;56311;50.298;8.514;2022-07-21T12:58:33;98077.69;;;25.11;45.58
69198;BME280;56311;50.298;8.514;2022-07-21T13:01:01;98074.03;;;25.00;45.94
69198;BME280;56311;50.298;8.514;2022-07-21T13:03:31;98083.41;;;24.92;46.28
69198;BME280;56311;50.298;8.514;2022-07-21T13:06:00;98070.44;;;24.96;47.16
69198;BME280;56311;50.298;8.514;2022-07-21T13:08:28;98086.06;;;24.85;46.54
69198;BME280;56311;50.298;8.514;2022-07-21T13:10:55;98076.03;;;25.37;46.56
69198;BME280;56311;50.298;8.514;2022-07-21T13:13:22;98076.38;;;26.11;44.09
69198;BME280;56311;50.298;8.514;2022-07-21T13:15:49;98074.56;;;26.33;43.23